Time;durP1;ratioP1;P1;durP2;ratioP2;P2;SDS_P1;SDS_P2;PMS_P1;PMS_P2;Temp;Humidity;BMP_temperature;BMP_pressure;BME280_temperature;BME280_humidity;BME280_pressure;Samples;Min_cycle;Max_cycle;Signal;HPM_P1;HPM_P2
2023/12/13 00:02:03;;;;;;;2.63;1.13;;;19.30;55.60;;;;;;5170705;27;45519;-67
2023/12/13 00:04:30;;;;;;;2.10;1.20;;;19.40;55.60;;;;;;5170197;27;47568;-67
2023/12/13 00:06:58;;;;;;;2.97;1.40;;;19.30;55.70;;;;;;5170199;27;45371;-67
2023/12/13 00:09:25;;;;;;;0.90;0.82;;;19.30;55.70;;;;;;5170165;27;45300;-67
2023/12/13 00:11:51;;;;;;;2.40;1.02;;;19.20;55.70;;;;;;5170714;27;45198;-67
2023/12/13 00:14:19;;;;;;;1.98;1.10;;;19.20;55.70;;;;;;5170439;27;45340;-67
2023/12/13 00:16:45;;;;;;;2.70;1.15;;;19.20;55.70;;;;;;5169837;27;45450;-68
2023/12/13 00:19:12;;;;;;;2.75;1.27;;;19.20;55.80;;;;;;5170341;27;45386;-68
2023/12/13 00:21:39;;;;;;;1.67;1.13;;;19.10;55.80;;;;;;5170553;27;45246;-67
2023/12/13 00:24:08;;;;;;;2.05;1.15;;;19.10;55.90;;;;;;5170131;27;46426;-68
2023/12/13 00:26:35;;;;;;;1.80;1.13;;;19.10;55.90;;;;;;5169625;27;45452;-68
2023/12/13 00:29:02;;;;;;;1.73;1.05;;;19.10;56.00;;;;;;5170530;27;45385;-67
2023/12/13 00:31:29;;;;;;;1.23;1.10;;;19.00;56.00;;;;;;5170234;27;45175;-68
2023/12/13 00:33:56;;;;;;;1.08;0.70;;;19.00;56.00;;;;;;5169922;27;46394;-67
2023/12/13 00:36:23;;;;;;;1.15;1.02;;;19.00;56.00;;;;;;5169797;27;45254;-67
2023/12/13 00:38:50;;;;;;;1.27;1.10;;;19.00;56.00;;;;;;5170198;27;45377;-67
2023/12/13 00:41:18;;;;;;;1.85;1.17;;;19.00;56.00;;;;;;5170214;27;45389;-68
2023/12/13 00:43:45;;;;;;;1.08;0.98;;;18.90;56.00;;;;;;5169942;27;47276;-68
2023/12/13 00:46:19;;;;;;;1.33;0.90;;;18.90;56.00;;;;;;5169801;27;45246;-68
2023/12/13 00:48:46;;;;;;;1.73;1.00;;;18.90;56.10;;;;;;5169567;27;45192;-68
2023/12/13 00:51:17;;;;;;;2.20;1.00;;;18.90;56.10;;;;;;5170134;27;45306;-68
2023/12/13 00:53:43;;;;;;;1.05;0.85;;;18.90;56.20;;;;;;5170069;27;45326;-68
2023/12/13 00:56:10;;;;;;;2.13;1.08;;;18.80;56.10;;;;;;5169483;27;45324;-67
2023/12/13 00:58:39;;;;;;;0.93;0.77;;;18.80;56.10;;;;;;5169820;27;45143;-68
2023/12/13 01:01:06;;;;;;;1.35;1.00;;;18.80;56.20;;;;;;5169919;27;45471;-68
2023/12/13 01:03:33;;;;;;;1.42;0.90;;;18.70;56.20;;;;;;5168886;27;46374;-68
2023/12/13 01:05:59;;;;;;;1.98;0.80;;;18.70;56.10;;;;;;5169246;27;45390;-68
2023/12/13 01:08:26;;;;;;;1.20;1.10;;;18.70;56.30;;;;;;5169845;27;45320;-68
2023/12/13 01:10:53;;;;;;;2.95;1.02;;;18.70;56.20;;;;;;5169758;27;45342;-68
2023/12/13 01:13:20;;;;;;;0.88;0.82;;;18.70;56.30;;;;;;5169202;27;47737;-68
2023/12/13 01:15:48;;;;;;;2.35;0.88;;;18.60;56.20;;;;;;5169413;27;45434;-68
2023/12/13 01:18:15;;;;;;;1.17;0.90;;;18.60;56.20;;;;;;5169522;27;45271;-68
2023/12/13 01:20:42;;;;;;;1.05;0.80;;;18.60;56.20;;;;;;5169814;27;45553;-68
2023/12/13 01:23:09;;;;;;;1.40;1.00;;;18.60;56.30;;;;;;5169109;27;46611;-67
2023/12/13 01:25:36;;;;;;;0.80;0.60;;;18.60;56.20;;;;;;5169440;27;45414;-68
2023/12/13 01:28:03;;;;;;;0.90;0.90;;;18.60;56.30;;;;;;5169319;27;45462;-68
2023/12/13 01:30:30;;;;;;;1.02;0.70;;;18.50;56.30;;;;;;5169484;27;45315;-68
2023/12/13 01:32:58;;;;;;;1.25;0.98;;;18.50;56.20;;;;;;5168797;27;46410;-68
2023/12/13 01:35:25;;;;;;;0.68;0.68;;;18.50;56.20;;;;;;5169073;27;45315;-68
2023/12/13 01:37:51;;;;;;;1.15;0.88;;;18.50;56.20;;;;;;5168971;27;45362;-68
2023/12/13 01:40:18;;;;;;;1.38;0.90;;;18.50;56.20;;;;;;5172693;27;45366;-68
2023/12/13 01:42:45;;;;;;;1.63;0.90;;;18.50;56.80;;;;;;5172803;27;46311;-68
2023/12/13 01:45:12;;;;;;;0.98;0.70;;;18.50;56.20;;;;;;5172718;27;45278;-68
2023/12/13 01:47:39;;;;;;;1.55;0.98;;;18.40;56.20;;;;;;5172254;27;45265;-68
2023/12/13 01:50:08;;;;;;;0.65;0.65;;;18.50;56.20;;;;;;5172990;27;45397;-68
2023/12/13 01:52:35;;;;;;;1.45;0.75;;;18.40;56.20;;;;;;5172461;27;45298;-68
2023/12/13 01:55:02;;;;;;;0.93;0.70;;;18.40;56.20;;;;;;5172415;27;45328;-68
2023/12/13 01:57:29;;;;;;;2.00;1.00;;;18.40;56.20;;;;;;5172647;27;45243;-68
2023/12/13 01:59:56;;;;;;;1.33;0.80;;;18.40;56.20;;;;;;5172926;27;45389;-68
2023/12/13 02:02:23;;;;;;;1.25;0.98;;;18.40;56.20;;;;;;5172496;27;46656;-68
2023/12/13 02:04:50;;;;;;;1.95;0.80;;;18.40;56.70;;;;;;5172364;27;45293;-68
2023/12/13 02:07:18;;;;;;;0.68;0.47;;;18.40;56.10;;;;;;5172596;27;45181;-68
2023/12/13 02:09:45;;;;;;;1.27;1.08;;;18.40;56.10;;;;;;5172718;27;45276;-68
2023/12/13 02:12:12;;;;;;;0.80;0.80;;;18.30;56.00;;;;;;5172110;27;46380;-68
2023/12/13 02:14:39;;;;;;;1.23;0.90;;;18.40;56.10;;;;;;5172226;27;45326;-68
2023/12/13 02:17:05;;;;;;;1.33;0.80;;;18.30;56.00;;;;;;5172409;27;45254;-67
2023/12/13 02:19:32;;;;;;;0.70;0.70;;;18.30;56.00;;;;;;5172595;27;45139;-67
2023/12/13 02:21:59;;;;;;;1.25;0.70;;;18.30;56.10;;;;;;5172357;27;46980;-67
2023/12/13 02:24:27;;;;;;;0.93;0.90;;;18.30;56.20;;;;;;5172093;27;45371;-68
2023/12/13 02:26:54;;;;;;;1.48;0.80;;;18.20;56.10;;;;;;5172542;27;45367;-67
2023/12/13 02:29:21;;;;;;;1.58;0.80;;;18.30;56.10;;;;;;5172291;27;45314;-67
2023/12/13 02:31:48;;;;;;;2.22;0.80;;;18.30;56.10;;;;;;5171482;27;45279;-67
2023/12/13 02:34:15;;;;;;;1.13;0.70;;;18.30;56.10;;;;;;5172022;27;45260;-67
2023/12/13 02:36:45;;;;;;;1.25;0.90;;;18.20;56.10;;;;;;5171716;27;45403;-68
2023/12/13 02:39:12;;;;;;;0.45;0.45;;;18.20;56.70;;;;;;5172290;27;45270;-67
2023/12/13 02:41:40;;;;;;;0.88;0.70;;;18.20;56.10;;;;;;5171855;27;47372;-67
2023/12/13 02:44:07;;;;;;;2.00;0.70;;;18.20;56.00;;;;;;5171930;27;45318;-67
2023/12/13 02:46:33;;;;;;;0.38;0.38;;;18.20;56.10;;;;;;5171989;27;45367;-67
2023/12/13 02:49:00;;;;;;;0.68;0.50;;;18.10;56.00;;;;;;5171861;27;45258;-68
2023/12/13 02:51:27;;;;;;;1.00;0.50;;;18.10;56.00;;;;;;5171323;27;46394;-67
2023/12/13 02:53:54;;;;;;;0.70;0.70;;;18.10;56.00;;;;;;5171751;27;45254;-68
2023/12/13 02:56:20;;;;;;;0.95;0.60;;;18.10;56.00;;;;;;5171730;27;45318;-67
2023/12/13 02:58:49;;;;;;;1.45;0.60;;;18.10;56.00;;;;;;5171601;27;45504;-68
2023/12/13 03:01:15;;;;;;;0.60;0.60;;;18.10;56.00;;;;;;5171533;27;46738;-68
2023/12/13 03:03:42;;;;;;;0.50;0.50;;;18.10;56.10;;;;;;5171541;27;45290;-68
2023/12/13 03:06:09;;;;;;;0.50;0.50;;;18.10;56.00;;;;;;5171475;27;45316;-68
2023/12/13 03:08:37;;;;;;;0.38;0.38;;;18.00;55.90;;;;;;5171793;27;45653;-67
2023/12/13 03:11:04;;;;;;;1.38;0.68;;;18.10;56.00;;;;;;5171364;27;46938;-67
2023/12/13 03:13:31;;;;;;;0.85;0.57;;;18.10;56.00;;;;;;5170670;27;45268;-67
2023/12/13 03:15:59;;;;;;;1.05;0.60;;;18.10;56.00;;;;;;5171508;27;45380;-67
2023/12/13 03:18:26;;;;;;;1.23;0.75;;;18.00;56.00;;;;;;5171673;27;45379;-67
2023/12/13 03:20:54;;;;;;;0.60;0.60;;;18.00;56.00;;;;;;5171142;27;45579;-67
2023/12/13 03:23:20;;;;;;;1.05;0.80;;;18.00;56.00;;;;;;5171052;27;45331;-67
2023/12/13 03:25:47;;;;;;;0.60;0.50;;;18.00;56.00;;;;;;5171380;27;45340;-67
2023/12/13 03:28:14;;;;;;;0.60;0.60;;;18.00;56.00;;;;;;5171746;27;45342;-67
2023/12/13 03:30:41;;;;;;;0.80;0.60;;;18.00;56.00;;;;;;5170809;27;46694;-67
2023/12/13 03:33:09;;;;;;;0.90;0.60;;;17.90;56.00;;;;;;5171133;27;45361;-67
2023/12/13 03:35:36;;;;;;;1.00;0.73;;;17.90;55.90;;;;;;5171024;27;45306;-67
2023/12/13 03:38:04;;;;;;;0.57;0.57;;;17.90;56.00;;;;;;5170916;27;45278;-67
2023/12/13 03:40:31;;;;;;;0.82;0.50;;;17.90;55.90;;;;;;5170811;27;46399;-67
2023/12/13 03:42:58;;;;;;;0.77;0.50;;;17.90;55.90;;;;;;5170856;27;45426;-67
2023/12/13 03:45:26;;;;;;;0.50;0.50;;;17.90;55.90;;;;;;5170857;27;45427;-67
2023/12/13 03:47:53;;;;;;;0.60;0.60;;;17.90;55.90;;;;;;5171174;27;45403;-67
2023/12/13 03:50:21;;;;;;;0.60;0.60;;;17.90;55.90;;;;;;5170664;27;47439;-68
2023/12/13 03:52:48;;;;;;;0.60;0.60;;;17.90;55.90;;;;;;5170776;27;45495;-67
2023/12/13 03:55:15;;;;;;;0.50;0.50;;;17.90;55.90;;;;;;5170845;27;45382;-67
2023/12/13 03:57:41;;;;;;;0.45;0.45;;;17.90;55.90;;;;;;5170566;27;45482;-67
2023/12/13 04:00:09;;;;;;;1.33;0.70;;;17.80;55.90;;;;;;5170549;27;46308;-67
2023/12/13 04:02:36;;;;;;;1.33;0.60;;;17.80;55.90;;;;;;5169510;27;45404;-67
2023/12/13 04:05:03;;;;;;;1.42;0.80;;;17.80;55.90;;;;;;5170471;27;45300;-67
2023/12/13 04:07:31;;;;;;;0.85;0.40;;;17.80;56.00;;;;;;5170793;27;45478;-67
2023/12/13 04:09:58;;;;;;;0.55;0.45;;;17.80;56.00;;;;;;5170664;27;46381;-67
2023/12/13 04:12:25;;;;;;;0.65;0.60;;;17.80;56.00;;;;;;5170299;27;45310;-67
2023/12/13 04:14:51;;;;;;;0.40;0.40;;;17.90;55.90;;;;;;5170528;27;45404;-67
2023/12/13 04:17:18;;;;;;;0.63;0.52;;;17.90;55.80;;;;;;5170689;27;45215;-67
2023/12/13 04:19:45;;;;;;;0.60;0.60;;;18.00;55.60;;;;;;5170243;27;46399;-67
2023/12/13 04:22:12;;;;;;;1.65;0.68;;;18.10;55.40;;;;;;5170441;27;45288;-67
2023/12/13 04:24:40;;;;;;;1.10;0.52;;;18.20;55.20;;;;;;5170271;27;45344;-67
2023/12/13 04:27:07;;;;;;;0.77;0.70;;;18.30;55.00;;;;;;5170364;27;45408;-67
2023/12/13 04:29:34;;;;;;;0.68;0.60;;;18.40;55.40;;;;;;5169966;27;45360;-67
2023/12/13 04:32:01;;;;;;;0.50;0.50;;;18.50;54.60;;;;;;5170032;27;45474;-67
2023/12/13 04:34:28;;;;;;;0.65;0.40;;;18.60;54.40;;;;;;5169937;27;45298;-67
2023/12/13 04:36:55;;;;;;;1.35;0.45;;;18.60;54.10;;;;;;5169852;27;45288;-67
2023/12/13 04:39:22;;;;;;;0.80;0.60;;;18.70;53.90;;;;;;5169480;27;46392;-67
2023/12/13 04:41:50;;;;;;;0.60;0.60;;;18.80;53.80;;;;;;5169503;27;45255;-67
2023/12/13 04:44:17;;;;;;;1.05;0.60;;;18.90;53.60;;;;;;5170089;27;45266;-67
2023/12/13 04:46:43;;;;;;;0.68;0.50;;;19.00;53.50;;;;;;5170430;27;45328;-67
2023/12/13 04:49:10;;;;;;;0.50;0.50;;;19.00;53.30;;;;;;5169539;27;46393;-67
2023/12/13 04:51:37;;;;;;;0.63;0.60;;;19.10;53.10;;;;;;5169544;27;45421;-67
2023/12/13 04:54:04;;;;;;;0.45;0.35;;;19.10;53.00;;;;;;5169909;27;45243;-67
2023/12/13 04:56:31;;;;;;;0.57;0.50;;;19.20;52.90;;;;;;5169881;27;45369;-67
2023/12/13 04:58:59;;;;;;;0.50;0.50;;;19.30;52.70;;;;;;5169283;27;46407;-67
2023/12/13 05:01:26;;;;;;;0.55;0.55;;;19.30;52.60;;;;;;5169562;27;45326;-67
2023/12/13 05:03:53;;;;;;;0.30;0.30;;;19.40;52.50;;;;;;5169681;27;45460;-66
2023/12/13 05:06:20;;;;;;;0.45;0.40;;;19.40;52.40;;;;;;5169790;27;45264;-67
2023/12/13 05:08:47;;;;;;;1.08;0.38;;;19.40;52.30;;;;;;5169333;27;45373;-67
2023/12/13 05:11:14;;;;;;;0.60;0.40;;;19.50;52.20;;;;;;5169451;27;45268;-67
2023/12/13 05:13:41;;;;;;;1.10;0.68;;;19.50;52.20;;;;;;5169179;27;45294;-67
2023/12/13 05:16:10;;;;;;;0.30;0.30;;;19.50;52.10;;;;;;5170363;27;45286;-67
2023/12/13 05:18:36;;;;;;;2.15;0.40;;;19.60;52.10;;;;;;5169448;27;49002;-67
2023/12/13 05:21:04;;;;;;;0.85;0.60;;;19.60;52.00;;;;;;5169195;27;45292;-68
2023/12/13 05:23:30;;;;;;;0.50;0.43;;;19.60;51.90;;;;;;5168887;27;45270;-67
2023/12/13 05:25:57;;;;;;;0.38;0.38;;;19.60;51.80;;;;;;5169584;27;45439;-66
2023/12/13 05:28:24;;;;;;;0.47;0.40;;;19.70;51.80;;;;;;5169297;27;46314;-67
2023/12/13 05:30:51;;;;;;;1.40;0.60;;;19.70;51.70;;;;;;5169249;27;45292;-68
2023/12/13 05:33:19;;;;;;;0.40;0.40;;;19.70;51.60;;;;;;5169143;27;45312;-67
2023/12/13 05:35:46;;;;;;;0.52;0.32;;;19.70;51.60;;;;;;5169485;27;45312;-67
2023/12/13 05:38:13;;;;;;;0.68;0.40;;;19.80;51.60;;;;;;5169216;27;46115;-67
2023/12/13 05:40:40;;;;;;;0.43;0.40;;;19.80;51.50;;;;;;5169056;27;45371;-67
2023/12/13 05:43:06;;;;;;;1.08;0.30;;;19.80;51.40;;;;;;5169253;27;45563;-68
2023/12/13 05:45:33;;;;;;;1.88;0.60;;;19.90;52.00;;;;;;5169256;27;45266;-67
2023/12/13 05:48:00;;;;;;;0.50;0.45;;;19.90;51.40;;;;;;5169044;27;45319;-68
2023/12/13 05:50:28;;;;;;;0.52;0.38;;;19.90;51.30;;;;;;5168969;27;45391;-67
2023/12/13 05:52:55;;;;;;;0.85;0.30;;;19.90;51.30;;;;;;5168837;27;45315;-67
2023/12/13 05:55:22;;;;;;;0.30;0.30;;;19.90;51.30;;;;;;5169027;27;45361;-67
2023/12/13 05:57:49;;;;;;;0.65;0.60;;;19.90;51.30;;;;;;5168635;27;45276;-67
2023/12/13 06:00:16;;;;;;;0.73;0.50;;;19.90;51.30;;;;;;5168721;27;45262;-67
2023/12/13 06:02:43;;;;;;;0.63;0.50;;;19.90;51.30;;;;;;5168952;27;45270;-67
2023/12/13 06:05:10;;;;;;;0.40;0.30;;;19.90;51.40;;;;;;5165660;27;45270;-68
2023/12/13 06:07:38;;;;;;;0.30;0.30;;;19.90;51.30;;;;;;5168452;27;47720;-67
2023/12/13 06:10:07;;;;;;;0.30;0.30;;;19.90;51.40;;;;;;5168220;27;45235;-68
2023/12/13 06:12:34;;;;;;;0.30;0.30;;;19.90;51.40;;;;;;5168187;27;45424;-68
2023/12/13 06:15:01;;;;;;;0.43;0.40;;;19.90;51.40;;;;;;5168073;27;45451;-68
2023/12/13 06:17:28;;;;;;;0.47;0.40;;;19.80;51.40;;;;;;5168259;27;46368;-68
2023/12/13 06:19:54;;;;;;;1.65;0.50;;;19.80;51.40;;;;;;5168294;27;45324;-67
2023/12/13 06:22:21;;;;;;;0.55;0.32;;;19.80;51.50;;;;;;5168157;27;45299;-67
2023/12/13 06:24:50;;;;;;;0.25;0.25;;;19.80;51.50;;;;;;5169147;27;45281;-67
2023/12/13 06:27:16;;;;;;;0.32;0.32;;;19.80;51.50;;;;;;5171665;27;47379;-67
2023/12/13 06:29:44;;;;;;;1.00;0.45;;;19.80;51.60;;;;;;5171744;27;45454;-67
2023/12/13 06:32:10;;;;;;;1.33;0.57;;;19.80;51.60;;;;;;5171834;27;45411;-67
2023/12/13 06:34:37;;;;;;;0.43;0.35;;;19.80;51.70;;;;;;5171659;27;45189;-68
2023/12/13 06:37:04;;;;;;;0.30;0.30;;;19.70;51.70;;;;;;5171127;27;47293;-67
2023/12/13 06:39:31;;;;;;;0.35;0.35;;;19.70;51.80;;;;;;5171471;27;45331;-68
2023/12/13 06:41:59;;;;;;;1.45;0.50;;;19.70;51.70;;;;;;5171528;27;45311;-67
2023/12/13 06:44:26;;;;;;;0.45;0.40;;;19.70;51.80;;;;;;5171801;27;45276;-67
2023/12/13 06:46:54;;;;;;;1.95;0.50;;;19.70;51.80;;;;;;5171204;27;45303;-68
2023/12/13 06:49:22;;;;;;;0.75;0.50;;;19.70;51.90;;;;;;5171172;27;46840;-68
2023/12/13 06:51:50;;;;;;;1.13;0.60;;;19.70;52.50;;;;;;5171144;27;45420;-67
2023/12/13 06:54:17;;;;;;;0.50;0.40;;;19.60;51.80;;;;;;5171423;27;45471;-68
2023/12/13 06:56:43;;;;;;;0.47;0.47;;;19.60;51.90;;;;;;5171162;27;46345;-68
2023/12/13 06:59:12;;;;;;;0.70;0.40;;;19.60;52.00;;;;;;5170911;27;45428;-68
2023/12/13 07:01:40;;;;;;;0.75;0.50;;;19.60;52.00;;;;;;5171414;27;45384;-68
2023/12/13 07:04:07;;;;;;;0.60;0.50;;;19.60;52.00;;;;;;5171472;27;45260;-68
2023/12/13 07:06:33;;;;;;;0.45;0.38;;;19.60;52.60;;;;;;5171018;27;46255;-68
2023/12/13 07:09:00;;;;;;;0.60;0.60;;;19.60;52.70;;;;;;5170933;27;45273;-66
2023/12/13 07:11:27;;;;;;;0.30;0.30;;;19.60;52.10;;;;;;5171013;27;45311;-66
2023/12/13 07:13:54;;;;;;;0.90;0.40;;;19.60;52.20;;;;;;5170914;27;45518;-66
2023/12/13 07:16:22;;;;;;;0.65;0.40;;;19.50;52.10;;;;;;5170625;27;45327;-65
2023/12/13 07:18:49;;;;;;;0.50;0.40;;;19.50;52.70;;;;;;5168179;27;45270;-65
2023/12/13 07:21:18;;;;;;;0.45;0.38;;;19.50;52.10;;;;;;5170927;27;45308;-65
2023/12/13 07:23:45;;;;;;;1.35;0.50;;;19.50;52.10;;;;;;5171058;27;45436;-66
2023/12/13 07:26:12;;;;;;;0.40;0.40;;;19.50;52.10;;;;;;5170457;27;46411;-66
2023/12/13 07:28:39;;;;;;;0.38;0.38;;;19.50;52.20;;;;;;5170663;27;45237;-65
2023/12/13 07:31:06;;;;;;;0.60;0.60;;;19.50;52.20;;;;;;5170680;27;45426;-67
2023/12/13 07:33:36;;;;;;;0.40;0.40;;;19.50;52.20;;;;;;5170207;27;45413;-66
2023/12/13 07:36:04;;;;;;;0.82;0.45;;;19.40;51.40;;;;;;5170103;27;46492;-66
2023/12/13 07:38:31;;;;;;;0.32;0.32;;;19.40;51.40;;;;;;5170156;27;46393;-66
2023/12/13 07:40:58;;;;;;;0.47;0.40;;;19.40;51.50;;;;;;5170725;27;45342;-66
2023/12/13 07:43:26;;;;;;;0.35;0.35;;;19.30;51.40;;;;;;5161927;27;45459;-66
2023/12/13 07:45:54;;;;;;;0.93;0.40;;;19.30;51.30;;;;;;5153935;27;45203;-65
2023/12/13 07:48:21;;;;;;;0.28;0.28;;;19.30;51.50;;;;;;5161010;27;45476;-65
2023/12/13 07:50:50;;;;;;;0.47;0.40;;;19.30;51.70;;;;;;5163619;27;45378;-65
2023/12/13 07:53:17;;;;;;;0.47;0.40;;;19.30;51.80;;;;;;5159575;27;45425;-65
2023/12/13 07:55:44;;;;;;;2.63;0.70;;;19.30;52.00;;;;;;5155273;27;46330;-65
2023/12/13 07:58:10;;;;;;;0.52;0.50;;;19.30;52.10;;;;;;5165857;27;46247;-67
2023/12/13 08:00:37;;;;;;;0.70;0.50;;;19.30;52.20;;;;;;5153584;27;45478;-65
2023/12/13 08:03:04;;;;;;;1.15;0.57;;;19.30;52.30;;;;;;5161358;27;45439;-65
2023/12/13 08:05:31;;;;;;;0.50;0.40;;;19.30;52.40;;;;;;5161006;27;46449;-66
2023/12/13 08:07:59;;;;;;;0.77;0.38;;;19.30;52.40;;;;;;5153254;27;45502;-66
2023/12/13 08:10:26;;;;;;;1.45;0.32;;;19.30;52.60;;;;;;5166092;27;45423;-67
2023/12/13 08:12:53;;;;;;;2.47;0.30;;;19.30;52.60;;;;;;5155768;27;45354;-66
2023/12/13 08:15:20;;;;;;;0.95;0.50;;;19.30;52.70;;;;;;5158329;27;45489;-65
2023/12/13 08:17:47;;;;;;;2.42;0.60;;;19.30;52.70;;;;;;5163432;27;45350;-66
2023/12/13 08:20:14;;;;;;;1.48;0.70;;;19.30;52.70;;;;;;5152152;27;45374;-65
2023/12/13 08:22:40;;;;;;;0.88;0.32;;;19.30;52.70;;;;;;5164361;27;45296;-65
2023/12/13 08:25:10;;;;;;;0.60;0.47;;;19.30;52.80;;;;;;5154460;27;45578;-68
2023/12/13 08:27:37;;;;;;;1.40;0.68;;;19.30;52.50;;;;;;5149660;27;45504;-67
2023/12/13 08:30:04;;;;;;;0.60;0.60;;;19.30;52.60;;;;;;5149347;27;45390;-66
2023/12/13 08:32:31;;;;;;;1.80;0.52;;;19.30;52.70;;;;;;5150351;27;45410;-68
2023/12/13 08:34:58;;;;;;;3.17;0.70;;;19.30;52.80;;;;;;5147788;27;45940;-72
2023/12/13 08:37:25;;;;;;;1.40;0.60;;;19.30;52.90;;;;;;5151994;27;45510;-70
2023/12/13 08:39:52;;;;;;;1.55;0.68;;;19.30;53.00;;;;;;5157609;27;45394;-69
2023/12/13 08:42:20;;;;;;;2.83;0.70;;;19.30;53.00;;;;;;5147587;27;45591;-69
2023/12/13 08:44:47;;;;;;;1.85;0.77;;;19.30;53.00;;;;;;5153974;27;45808;-69
2023/12/13 08:47:14;;;;;;;2.65;0.63;;;19.30;53.00;;;;;;5150333;27;45532;-68
2023/12/13 08:49:41;;;;;;;0.82;0.50;;;19.20;53.00;;;;;;5156034;27;45433;-70
2023/12/13 08:52:08;;;;;;;2.30;0.55;;;19.30;53.00;;;;;;5153173;27;45668;-70
2023/12/13 08:54:35;;;;;;;2.05;0.68;;;19.20;52.80;;;;;;5150345;27;45460;-69
2023/12/13 08:57:02;;;;;;;3.20;1.02;;;19.30;52.90;;;;;;5146352;27;45628;-70
2023/12/13 08:59:31;;;;;;;0.57;0.57;;;19.30;52.80;;;;;;5148892;27;45571;-71
2023/12/13 09:01:57;;;;;;;1.98;0.57;;;19.20;52.70;;;;;;5148732;27;45336;-65
2023/12/13 09:04:24;;;;;;;2.72;0.43;;;19.30;52.70;;;;;;5145571;27;45480;-69
2023/12/13 09:06:51;;;;;;;1.55;0.70;;;19.30;53.00;;;;;;5144838;27;45428;-67
2023/12/13 09:09:18;;;;;;;6.95;0.80;;;19.30;52.70;;;;;;5152819;27;45390;-70
2023/12/13 09:11:46;;;;;;;2.75;0.63;;;19.30;52.80;;;;;;5146688;27;45653;-67
2023/12/13 09:14:13;;;;;;;3.17;1.13;;;19.40;52.90;;;;;;5147942;27;46415;-71
2023/12/13 09:16:41;;;;;;;8.05;1.40;;;19.40;52.70;;;;;;5147392;27;45418;-71
2023/12/13 09:19:08;;;;;;;1.88;0.65;;;19.50;52.80;;;;;;5154371;27;45904;-71
2023/12/13 09:21:35;;;;;;;3.70;0.77;;;19.50;52.70;;;;;;5162157;27;45467;-65
2023/12/13 09:24:02;;;;;;;3.45;1.08;;;19.60;52.50;;;;;;5154131;27;46529;-67
2023/12/13 09:26:29;;;;;;;1.45;0.73;;;19.70;52.40;;;;;;5149895;27;45424;-71
2023/12/13 09:28:56;;;;;;;8.38;3.20;;;19.70;52.60;;;;;;5149062;27;45479;-69
2023/12/13 09:31:23;;;;;;;4.10;1.45;;;19.80;52.40;;;;;;5155880;27;45526;-67
2023/12/13 09:33:52;;;;;;;1.83;1.30;;;19.80;52.70;;;;;;5153551;27;46533;-69
2023/12/13 09:36:19;;;;;;;1.40;1.20;;;19.90;52.20;;;;;;5150524;27;45248;-68
2023/12/13 09:38:46;;;;;;;2.47;1.15;;;19.90;52.00;;;;;;5151957;27;45464;-72
2023/12/13 09:41:14;;;;;;;11.50;3.67;;;20.00;51.90;;;;;;5155129;27;45537;-69
2023/12/13 09:43:42;;;;;;;23.90;5.97;;;20.00;51.80;;;;;;5154957;27;47120;-72
2023/12/13 09:46:10;;;;;;;5.30;1.70;;;20.10;51.70;;;;;;5150105;27;45348;-68
2023/12/13 09:48:36;;;;;;;5.18;1.77;;;20.10;51.60;;;;;;5148470;27;45773;-71
2023/12/13 09:51:05;;;;;;;5.32;1.35;;;20.20;51.60;;;;;;5154231;27;45436;-69
2023/12/13 09:53:32;;;;;;;4.28;1.50;;;20.20;51.50;;;;;;5158436;27;46352;-68
2023/12/13 09:55:59;;;;;;;4.82;1.50;;;20.30;51.20;;;;;;5145594;27;45438;-68
2023/12/13 09:58:26;;;;;;;7.43;1.90;;;20.30;51.40;;;;;;5160212;27;45287;-71
2023/12/13 10:00:53;;;;;;;4.70;1.60;;;20.30;51.40;;;;;;5148920;27;45368;-68
2023/12/13 10:03:19;;;;;;;4.13;1.48;;;20.30;51.30;;;;;;5152988;27;45719;-68
2023/12/13 10:05:48;;;;;;;7.05;1.65;;;20.30;51.50;;;;;;5158707;27;45659;-69
2023/12/13 10:08:16;;;;;;;2.97;1.60;;;20.40;51.80;;;;;;5157230;27;45411;-68
2023/12/13 10:10:47;;;;;;;3.92;1.05;;;20.40;51.60;;;;;;5160120;27;45434;-69
2023/12/13 10:13:14;;;;;;;4.80;1.60;;;20.50;51.70;;;;;;5157260;27;45261;-70
2023/12/13 10:15:41;;;;;;;8.75;2.50;;;20.50;51.50;;;;;;5149989;27;45154;-69
2023/12/13 10:18:08;;;;;;;6.78;2.90;;;20.60;51.80;;;;;;5160690;27;45455;-69
2023/12/13 10:20:35;;;;;;;3.45;1.75;;;20.60;51.70;;;;;;5157698;27;45551;-66
2023/12/13 10:23:02;;;;;;;4.40;1.40;;;20.60;51.50;;;;;;5153472;27;48167;-68
2023/12/13 10:25:31;;;;;;;2.65;1.80;;;20.60;51.20;;;;;;5155968;27;45331;-71
2023/12/13 10:27:58;;;;;;;6.07;1.70;;;20.70;51.50;;;;;;5149566;27;45590;-74
2023/12/13 10:30:26;;;;;;;2.78;1.20;;;20.70;51.80;;;;;;5154682;27;45632;-70
2023/12/13 10:32:53;;;;;;;6.05;1.25;;;20.70;51.70;;;;;;5154313;27;45477;-66
2023/12/13 10:35:22;;;;;;;1.38;1.13;;;20.70;51.60;;;;;;5149515;27;45707;-73
2023/12/13 10:37:49;;;;;;;3.55;1.30;;;20.80;52.20;;;;;;5159378;27;45471;-71
2023/12/13 10:40:17;;;;;;;2.22;1.13;;;20.80;51.40;;;;;;5151914;27;45379;-68
2023/12/13 10:42:46;;;;;;;2.10;1.20;;;20.90;51.40;;;;;;5151187;27;45462;-64
2023/12/13 10:45:13;;;;;;;5.60;1.30;;;20.90;51.50;;;;;;5152236;27;45666;-69
2023/12/13 10:47:46;;;;;;;3.15;1.30;;;20.90;51.60;;;;;;5153649;27;45567;-67
2023/12/13 10:50:13;;;;;;;1.13;1.00;;;20.90;51.30;;;;;;5161349;27;45459;-67
2023/12/13 10:52:40;;;;;;;3.08;1.35;;;20.90;51.60;;;;;;5152052;27;45582;-65
2023/12/13 10:55:09;;;;;;;3.15;1.10;;;21.00;51.40;;;;;;5158641;27;45395;-69
2023/12/13 10:57:37;;;;;;;5.95;1.50;;;21.10;51.60;;;;;;5152324;27;45644;-68
2023/12/13 11:00:06;;;;;;;4.20;1.10;;;21.20;51.50;;;;;;5155116;27;45437;-67
2023/12/13 11:02:35;;;;;;;3.03;0.93;;;21.30;51.60;;;;;;5153018;27;45466;-69
2023/12/13 11:05:09;;;;;;;3.47;1.10;;;21.40;51.30;;;;;;5154062;27;45829;-70
2023/12/13 11:07:44;;;;;;;2.17;1.17;;;21.40;50.70;;;;;;5148856;27;45376;-67
2023/12/13 11:10:11;;;;;;;5.90;1.10;;;21.50;50.60;;;;;;5148158;27;45497;-67
2023/12/13 11:12:46;;;;;;;3.88;1.02;;;21.50;50.50;;;;;;5157659;27;46408;-67
2023/12/13 11:15:15;;;;;;;2.35;1.17;;;21.50;50.50;;;;;;5157302;27;45651;-69
2023/12/13 11:17:45;;;;;;;1.73;0.85;;;21.50;50.50;;;;;;5165735;27;45464;-69
2023/12/13 11:20:14;;;;;;;10.85;1.13;;;21.50;50.40;;;;;;5154376;27;45392;-73
2023/12/13 11:22:47;;;;;;;2.55;1.00;;;21.60;50.60;;;;;;5157830;27;46398;-70
2023/12/13 11:25:14;;;;;;;3.67;0.98;;;21.50;50.70;;;;;;5158885;27;45517;-69
2023/12/13 11:27:55;;;;;;;1.52;0.80;;;21.50;50.80;;;;;;5161314;27;45549;-70
2023/12/13 11:30:23;;;;;;;2.38;0.90;;;21.50;50.80;;;;;;5158728;27;45479;-66
2023/12/13 11:32:51;;;;;;;4.43;0.90;;;21.40;51.00;;;;;;5160917;27;45449;-69
2023/12/13 11:35:19;;;;;;;1.52;0.98;;;21.40;51.30;;;;;;5157317;27;45741;-65
2023/12/13 11:37:48;;;;;;;8.13;1.55;;;21.30;51.50;;;;;;5154593;27;45412;-70
2023/12/13 11:40:15;;;;;;;2.42;1.20;;;21.30;51.20;;;;;;5162013;27;45485;-70
2023/12/13 11:42:42;;;;;;;0.80;0.70;;;21.20;51.40;;;;;;5149218;27;45521;-70
2023/12/13 11:45:10;;;;;;;4.97;0.90;;;21.20;52.10;;;;;;5155128;27;45407;-69
2023/12/13 11:47:38;;;;;;;6.10;0.90;;;21.20;51.30;;;;;;5152310;27;45248;-68
2023/12/13 11:50:07;;;;;;;4.50;1.00;;;21.20;51.80;;;;;;5157028;27;45492;-69
2023/12/13 11:52:34;;;;;;;1.88;0.85;;;21.30;51.70;;;;;;5161644;27;47261;-66
2023/12/13 11:55:02;;;;;;;4.10;1.00;;;21.40;51.60;;;;;;5152938;27;45903;-71
2023/12/13 11:57:29;;;;;;;4.35;1.00;;;21.30;51.60;;;;;;5149873;27;45250;-72
2023/12/13 11:59:56;;;;;;;2.60;1.00;;;21.30;51.70;;;;;;5150443;27;45442;-73
2023/12/13 12:02:23;;;;;;;2.25;0.90;;;21.30;52.40;;;;;;5149478;27;46399;-68
2023/12/13 12:04:52;;;;;;;1.67;0.90;;;21.30;51.80;;;;;;5148423;27;45267;-68
2023/12/13 12:07:19;;;;;;;4.68;1.30;;;21.30;51.70;;;;;;5149423;27;45434;-69
2023/12/13 12:09:49;;;;;;;3.08;0.70;;;21.30;51.80;;;;;;5149614;27;45395;-69
2023/12/13 12:12:16;;;;;;;5.22;1.25;;;21.30;51.70;;;;;;5149715;27;47006;-71
2023/12/13 12:14:45;;;;;;;0.70;0.70;;;21.20;51.70;;;;;;5149320;27;45260;-71
2023/12/13 12:17:12;;;;;;;0.95;0.93;;;21.20;51.70;;;;;;5149623;27;45359;-70
2023/12/13 12:19:39;;;;;;;1.60;0.85;;;21.20;51.60;;;;;;5148549;27;45262;-65
2023/12/13 12:22:07;;;;;;;9.65;1.05;;;21.10;51.60;;;;;;5146702;27;45456;-67
2023/12/13 12:24:36;;;;;;;5.25;1.15;;;21.10;51.80;;;;;;5147879;27;45377;-65
2023/12/13 12:27:09;;;;;;;1.92;0.93;;;21.10;51.80;;;;;;5148347;27;45346;-69
2023/12/13 12:29:36;;;;;;;4.97;0.90;;;21.10;52.00;;;;;;5148324;27;45273;-68
2023/12/13 12:32:07;;;;;;;8.30;1.00;;;21.10;51.80;;;;;;5147699;27;47238;-68
2023/12/13 12:34:35;;;;;;;2.42;1.05;;;21.20;51.70;;;;;;5147913;27;45377;-67
2023/12/13 12:37:02;;;;;;;1.65;0.90;;;21.20;51.60;;;;;;5149484;27;45482;-69
2023/12/13 12:39:31;;;;;;;5.88;0.80;;;21.20;51.40;;;;;;5166419;27;45626;-68
2023/12/13 12:41:58;;;;;;;1.58;0.90;;;21.30;51.20;;;;;;5156599;27;46385;-69
2023/12/13 12:44:25;;;;;;;8.55;1.50;;;21.30;51.20;;;;;;5164235;27;45783;-69
2023/12/13 12:46:51;;;;;;;2.70;1.60;;;21.30;51.10;;;;;;5157242;27;45459;-68